sensor_id;sensor_type;location;lat;lon;timestamp;pressure;altitude;pressure_sealevel;temperature;humidity
79461;BME280;68929;42.666;23.324;2023-04-03T00:02:11;93906.00;;;13.79;47.17
79461;BME280;68929;42.666;23.324;2023-04-03T00:04:36;93893.66;;;13.68;47.38
79461;BME280;68929;42.666;23.324;2023-04-03T00:07:02;93893.28;;;13.81;47.59
79461;BME280;68929;42.666;23.324;2023-04-03T00:09:27;93884.75;;;13.79;48.00
79461;BME280;68929;42.666;23.324;2023-04-03T00:11:52;93876.72;;;13.74;47.51
79461;BME280;68929;42.666;23.324;2023-04-03T00:14:18;93887.28;;;13.69;47.89
79461;BME280;68929;42.666;23.324;2023-04-03T00:16:43;93890.66;;;13.59;48.12
79461;BME280;68929;42.666;23.324;2023-04-03T00:19:09;93872.00;;;13.54;48.62
79461;BME280;68929;42.666;23.324;2023-04-03T00:21:36;93884.16;;;13.72;47.84
79461;BME280;68929;42.666;23.324;2023-04-03T00:24:02;93891.44;;;14.13;47.46
79461;BME280;68929;42.666;23.324;2023-04-03T00:26:27;93889.31;;;14.15;47.40
79461;BME280;68929;42.666;23.324;2023-04-03T00:28:53;93861.22;;;13.92;46.78
79461;BME280;68929;42.666;23.324;2023-04-03T00:31:18;93883.75;;;13.85;47.03
79461;BME280;68929;42.666;23.324;2023-04-03T00:33:44;93888.16;;;13.74;47.87
79461;BME280;68929;42.666;23.324;2023-04-03T00:36:10;93864.41;;;13.62;47.43
79461;BME280;68929;42.666;23.324;2023-04-03T00:38:36;93902.56;;;13.56;48.48
79461;BME280;68929;42.666;23.324;2023-04-03T00:41:01;93886.72;;;13.40;49.06
79461;BME280;68929;42.666;23.324;2023-04-03T00:43:27;93889.56;;;13.55;48.86
79461;BME280;68929;42.666;23.324;2023-04-03T00:45:54;93884.44;;;13.48;48.61
79461;BME280;68929;42.666;23.324;2023-04-03T00:48:24;93871.16;;;13.48;48.12
79461;BME280;68929;42.666;23.324;2023-04-03T00:50:51;93875.44;;;13.28;48.65
79461;BME280;68929;42.666;23.324;2023-04-03T00:53:21;93904.28;;;13.41;48.71
79461;BME280;68929;42.666;23.324;2023-04-03T00:55:49;93894.84;;;13.28;49.35
79461;BME280;68929;42.666;23.324;2023-04-03T00:58:17;93900.06;;;13.23;49.04
79461;BME280;68929;42.666;23.324;2023-04-03T01:00:48;93913.22;;;13.35;49.38
79461;BME280;68929;42.666;23.324;2023-04-03T01:03:16;93886.25;;;13.21;49.19
79461;BME280;68929;42.666;23.324;2023-04-03T01:05:42;93900.75;;;13.35;49.09
79461;BME280;68929;42.666;23.324;2023-04-03T01:08:07;93888.91;;;13.21;48.96
79461;BME280;68929;42.666;23.324;2023-04-03T01:10:33;93877.53;;;13.04;49.04
79461;BME280;68929;42.666;23.324;2023-04-03T01:12:59;93906.19;;;13.24;49.15
79461;BME280;68929;42.666;23.324;2023-04-03T01:15:27;93904.94;;;12.71;48.05
79461;BME280;68929;42.666;23.324;2023-04-03T01:17:57;93882.19;;;12.75;50.54
79461;BME280;68929;42.666;23.324;2023-04-03T01:25:57;93898.97;;;12.81;49.23
79461;BME280;68929;42.666;23.324;2023-04-03T01:28:30;93901.00;;;12.74;50.46
79461;BME280;68929;42.666;23.324;2023-04-03T01:31:06;93906.63;;;13.16;49.68
79461;BME280;68929;42.666;23.324;2023-04-03T01:33:34;93898.22;;;13.24;49.01
79461;BME280;68929;42.666;23.324;2023-04-03T01:36:01;93909.41;;;13.47;49.28
79461;BME280;68929;42.666;23.324;2023-04-03T01:38:26;93885.06;;;13.55;48.33
79461;BME280;68929;42.666;23.324;2023-04-03T01:40:52;93880.31;;;12.93;47.72
79461;BME280;68929;42.666;23.324;2023-04-03T01:43:17;93890.28;;;12.64;47.98
79461;BME280;68929;42.666;23.324;2023-04-03T01:45:43;93874.50;;;12.02;51.83
79461;BME280;68929;42.666;23.324;2023-04-03T01:48:08;93896.31;;;12.43;51.17
79461;BME280;68929;42.666;23.324;2023-04-03T01:50:33;93898.06;;;12.92;50.39
79461;BME280;68929;42.666;23.324;2023-04-03T01:52:59;93898.97;;;12.81;50.50
79461;BME280;68929;42.666;23.324;2023-04-03T01:55:24;93899.44;;;12.95;49.85
79461;BME280;68929;42.666;23.324;2023-04-03T01:57:50;93908.16;;;13.33;49.30
79461;BME280;68929;42.666;23.324;2023-04-03T02:00:15;93894.66;;;13.35;49.13
79461;BME280;68929;42.666;23.324;2023-04-03T02:02:41;93910.06;;;13.38;48.80
79461;BME280;68929;42.666;23.324;2023-04-03T02:05:07;93892.84;;;13.40;48.88
79461;BME280;68929;42.666;23.324;2023-04-03T02:07:33;93900.09;;;13.72;47.41
79461;BME280;68929;42.666;23.324;2023-04-03T02:09:58;93869.91;;;13.56;48.56
79461;BME280;68929;42.666;23.324;2023-04-03T02:12:23;93888.44;;;13.78;47.57
79461;BME280;68929;42.666;23.324;2023-04-03T02:14:49;93903.09;;;13.80;47.96
79461;BME280;68929;42.666;23.324;2023-04-03T02:17:14;93880.22;;;13.52;47.76
79461;BME280;68929;42.666;23.324;2023-04-03T02:19:40;93905.78;;;13.58;48.47
79461;BME280;68929;42.666;23.324;2023-04-03T02:22:05;93910.34;;;13.63;48.53
79461;BME280;68929;42.666;23.324;2023-04-03T02:24:32;93905.28;;;13.61;48.44
79461;BME280;68929;42.666;23.324;2023-04-03T02:26:57;93894.50;;;13.46;48.60
79461;BME280;68929;42.666;23.324;2023-04-03T02:29:23;93895.13;;;13.32;48.52
79461;BME280;68929;42.666;23.324;2023-04-03T02:31:49;93890.44;;;13.17;48.96
79461;BME280;68929;42.666;23.324;2023-04-03T02:34:15;93895.44;;;13.35;48.94
79461;BME280;68929;42.666;23.324;2023-04-03T02:36:41;93869.22;;;13.17;48.70
79461;BME280;68929;42.666;23.324;2023-04-03T02:39:06;93877.41;;;12.94;49.53
79461;BME280;68929;42.666;23.324;2023-04-03T02:41:31;93883.56;;;12.78;49.90
79461;BME280;68929;42.666;23.324;2023-04-03T02:44:04;93877.19;;;12.57;50.49
79461;BME280;68929;42.666;23.324;2023-04-03T02:46:30;93902.78;;;12.52;50.52
79461;BME280;68929;42.666;23.324;2023-04-03T02:48:55;93881.41;;;12.37;50.69
79461;BME280;68929;42.666;23.324;2023-04-03T02:51:21;93889.41;;;12.42;50.99
79461;BME280;68929;42.666;23.324;2023-04-03T02:53:48;93860.50;;;12.40;50.83
79461;BME280;68929;42.666;23.324;2023-04-03T02:56:13;93872.19;;;12.61;50.70
79461;BME280;68929;42.666;23.324;2023-04-03T02:58:39;93868.00;;;12.65;50.48
79461;BME280;68929;42.666;23.324;2023-04-03T03:01:04;93830.63;;;12.45;50.92
79461;BME280;68929;42.666;23.324;2023-04-03T03:03:30;93866.09;;;12.44;51.17
79461;BME280;68929;42.666;23.324;2023-04-03T03:06:15;93852.81;;;12.39;50.07
79461;BME280;68929;42.666;23.324;2023-04-03T03:08:41;93847.03;;;11.75;51.59
79461;BME280;68929;42.666;23.324;2023-04-03T03:11:07;93845.22;;;11.64;51.89
79461;BME280;68929;42.666;23.324;2023-04-03T03:13:32;93847.63;;;11.49;52.53
79461;BME280;68929;42.666;23.324;2023-04-03T03:15:58;93863.75;;;11.92;52.08
79461;BME280;68929;42.666;23.324;2023-04-03T03:18:23;93864.38;;;11.99;51.63
79461;BME280;68929;42.666;23.324;2023-04-03T03:20:54;93858.75;;;11.79;51.55
79461;BME280;68929;42.666;23.324;2023-04-03T03:23:23;93865.97;;;11.84;52.37
79461;BME280;68929;42.666;23.324;2023-04-03T03:25:58;93865.97;;;11.84;51.64
79461;BME280;68929;42.666;23.324;2023-04-03T03:28:24;93862.91;;;11.75;53.23
79461;BME280;68929;42.666;23.324;2023-04-03T03:30:49;93872.97;;;12.78;49.84
79461;BME280;68929;42.666;23.324;2023-04-03T03:33:15;93850.97;;;11.73;51.46
79461;BME280;68929;42.666;23.324;2023-04-03T03:35:42;93861.00;;;12.21;51.66
79461;BME280;68929;42.666;23.324;2023-04-03T03:38:08;93846.88;;;10.69;52.76
79461;BME280;68929;42.666;23.324;2023-04-03T03:40:34;93853.28;;;11.69;52.42
79461;BME280;68929;42.666;23.324;2023-04-03T03:42:59;93875.28;;;12.20;51.25
79461;BME280;68929;42.666;23.324;2023-04-03T03:45:25;93837.03;;;12.49;50.33
79461;BME280;68929;42.666;23.324;2023-04-03T03:47:50;93859.53;;;12.30;50.73
79461;BME280;68929;42.666;23.324;2023-04-03T03:50:16;93839.50;;;12.55;49.78
79461;BME280;68929;42.666;23.324;2023-04-03T03:52:41;93856.53;;;12.81;49.13
79461;BME280;68929;42.666;23.324;2023-04-03T03:55:07;93874.84;;;12.61;49.67
79461;BME280;68929;42.666;23.324;2023-04-03T03:57:32;93877.94;;;12.36;49.50
79461;BME280;68929;42.666;23.324;2023-04-03T03:59:57;93873.50;;;11.75;51.79
79461;BME280;68929;42.666;23.324;2023-04-03T04:02:23;93861.75;;;11.55;51.68
79461;BME280;68929;42.666;23.324;2023-04-03T04:04:49;93864.94;;;11.57;52.64
79461;BME280;68929;42.666;23.324;2023-04-03T04:07:14;93865.59;;;11.47;51.82
79461;BME280;68929;42.666;23.324;2023-04-03T04:09:39;93867.94;;;11.32;52.93
79461;BME280;68929;42.666;23.324;2023-04-03T04:12:05;93839.75;;;11.82;52.18
79461;BME280;68929;42.666;23.324;2023-04-03T04:14:31;93856.25;;;12.06;51.04
79461;BME280;68929;42.666;23.324;2023-04-03T04:16:56;93863.56;;;11.09;52.73
79461;BME280;68929;42.666;23.324;2023-04-03T04:19:21;93873.94;;;10.36;54.93
79461;BME280;68929;42.666;23.324;2023-04-03T04:21:47;93885.38;;;10.07;56.48
79461;BME280;68929;42.666;23.324;2023-04-03T04:24:12;93890.53;;;9.91;57.83
79461;BME280;68929;42.666;23.324;2023-04-03T04:26:38;93859.66;;;9.09;56.51
79461;BME280;68929;42.666;23.324;2023-04-03T04:29:03;93886.66;;;8.93;57.81
79461;BME280;68929;42.666;23.324;2023-04-03T04:31:28;93887.97;;;8.83;58.96
79461;BME280;68929;42.666;23.324;2023-04-03T04:33:54;93882.13;;;8.63;60.82
79461;BME280;68929;42.666;23.324;2023-04-03T04:36:19;93894.25;;;8.64;59.98
79461;BME280;68929;42.666;23.324;2023-04-03T04:38:45;93889.34;;;8.32;60.88
79461;BME280;68929;42.666;23.324;2023-04-03T04:41:10;93894.63;;;8.50;60.72
79461;BME280;68929;42.666;23.324;2023-04-03T04:43:36;93898.06;;;8.68;60.19
79461;BME280;68929;42.666;23.324;2023-04-03T04:46:05;93886.81;;;8.61;61.31
79461;BME280;68929;42.666;23.324;2023-04-03T04:48:31;93906.84;;;8.62;60.99
79461;BME280;68929;42.666;23.324;2023-04-03T04:50:56;93907.22;;;8.66;61.28
79461;BME280;68929;42.666;23.324;2023-04-03T04:53:22;93905.69;;;8.95;59.70
79461;BME280;68929;42.666;23.324;2023-04-03T04:55:47;93919.56;;;9.02;60.38
79461;BME280;68929;42.666;23.324;2023-04-03T04:58:14;93918.16;;;8.99;59.99
79461;BME280;68929;42.666;23.324;2023-04-03T05:00:40;93908.81;;;9.03;59.79
79461;BME280;68929;42.666;23.324;2023-04-03T05:03:05;93905.78;;;9.18;59.55
79461;BME280;68929;42.666;23.324;2023-04-03T05:05:31;93911.34;;;9.28;59.82
79461;BME280;68929;42.666;23.324;2023-04-03T05:07:56;93932.25;;;9.41;60.45
79461;BME280;68929;42.666;23.324;2023-04-03T05:10:28;93912.19;;;9.40;58.83
79461;BME280;68929;42.666;23.324;2023-04-03T05:12:53;93926.09;;;9.47;58.63
79461;BME280;68929;42.666;23.324;2023-04-03T05:15:19;93926.31;;;9.87;59.00
79461;BME280;68929;42.666;23.324;2023-04-03T05:17:54;93924.00;;;11.17;55.63
79461;BME280;68929;42.666;23.324;2023-04-03T05:20:22;93933.13;;;11.78;54.18
79461;BME280;68929;42.666;23.324;2023-04-03T05:22:50;93933.44;;;12.10;52.73
79461;BME280;68929;42.666;23.324;2023-04-03T05:25:15;93942.09;;;12.55;50.97
79461;BME280;68929;42.666;23.324;2023-04-03T05:27:41;93939.34;;;12.17;52.37
79461;BME280;68929;42.666;23.324;2023-04-03T05:30:07;93920.97;;;11.65;53.04
79461;BME280;68929;42.666;23.324;2023-04-03T05:32:41;93916.28;;;11.56;53.24
79461;BME280;68929;42.666;23.324;2023-04-03T05:35:08;93935.72;;;11.61;54.04
79461;BME280;68929;42.666;23.324;2023-04-03T05:37:34;93938.59;;;11.60;53.42
79461;BME280;68929;42.666;23.324;2023-04-03T05:40:00;93939.69;;;10.96;55.01
79461;BME280;68929;42.666;23.324;2023-04-03T05:42:26;93920.56;;;9.78;57.51
79461;BME280;68929;42.666;23.324;2023-04-03T05:44:52;93934.94;;;9.52;58.24
79461;BME280;68929;42.666;23.324;2023-04-03T05:47:18;93913.31;;;9.32;59.65
79461;BME280;68929;42.666;23.324;2023-04-03T05:49:44;93914.91;;;9.63;60.86
79461;BME280;68929;42.666;23.324;2023-04-03T05:52:22;93922.84;;;10.27;58.78
79461;BME280;68929;42.666;23.324;2023-04-03T05:54:50;93914.34;;;10.72;55.92
79461;BME280;68929;42.666;23.324;2023-04-03T05:57:29;93925.94;;;10.48;56.04
79461;BME280;68929;42.666;23.324;2023-04-03T05:59:58;93910.44;;;10.74;56.61
79461;BME280;68929;42.666;23.324;2023-04-03T06:02:24;93899.84;;;10.63;55.24
79461;BME280;68929;42.666;23.324;2023-04-03T06:04:55;93908.59;;;10.52;57.34
79461;BME280;68929;42.666;23.324;2023-04-03T06:07:29;93909.41;;;11.15;54.81
79461;BME280;68929;42.666;23.324;2023-04-03T06:09:56;93878.69;;;10.86;55.75
79461;BME280;68929;42.666;23.324;2023-04-03T06:12:22;93901.41;;;10.98;56.09
79461;BME280;68929;42.666;23.324;2023-04-03T06:14:48;93908.47;;;10.70;54.65
79461;BME280;68929;42.666;23.324;2023-04-03T06:17:18;93898.72;;;10.59;56.32
79461;BME280;68929;42.666;23.324;2023-04-03T06:19:47;93901.94;;;10.37;55.92
79461;BME280;68929;42.666;23.324;2023-04-03T06:22:13;93880.69;;;10.44;56.85
79461;BME280;68929;42.666;23.324;2023-04-03T06:24:39;93883.28;;;10.79;56.62
79461;BME280;68929;42.666;23.324;2023-04-03T06:27:05;93898.94;;;10.69;56.20
79461;BME280;68929;42.666;23.324;2023-04-03T06:29:30;93905.22;;;10.91;55.07
79461;BME280;68929;42.666;23.324;2023-04-03T06:31:56;93919.38;;;11.24;55.24
79461;BME280;68929;42.666;23.324;2023-04-03T06:34:22;93915.75;;;11.42;54.31
79461;BME280;68929;42.666;23.324;2023-04-03T06:36:48;93908.91;;;10.90;54.05
79461;BME280;68929;42.666;23.324;2023-04-03T06:39:20;93924.41;;;10.98;54.71
79461;BME280;68929;42.666;23.324;2023-04-03T06:41:57;93924.72;;;11.41;54.71
79461;BME280;68929;42.666;23.324;2023-04-03T06:44:23;93912.72;;;11.50;54.81
79461;BME280;68929;42.666;23.324;2023-04-03T06:46:50;93920.88;;;11.88;53.90
79461;BME280;68929;42.666;23.324;2023-04-03T06:49:17;93919.78;;;12.18;53.77
79461;BME280;68929;42.666;23.324;2023-04-03T06:51:42;93918.16;;;12.17;53.06
79461;BME280;68929;42.666;23.324;2023-04-03T06:54:21;93925.13;;;11.89;54.02
79461;BME280;68929;42.666;23.324;2023-04-03T06:56:50;93931.81;;;12.25;53.49
79461;BME280;68929;42.666;23.324;2023-04-03T06:59:16;93874.03;;;12.06;51.52
79461;BME280;68929;42.666;23.324;2023-04-03T07:01:42;93908.06;;;12.30;52.67
79461;BME280;68929;42.666;23.324;2023-04-03T07:04:13;93928.59;;;12.07;53.18
79461;BME280;68929;42.666;23.324;2023-04-03T07:06:43;93932.63;;;12.09;54.04
79461;BME280;68929;42.666;23.324;2023-04-03T07:09:09;93917.03;;;12.13;52.85
79461;BME280;68929;42.666;23.324;2023-04-03T07:11:36;93895.84;;;12.13;51.90
79461;BME280;68929;42.666;23.324;2023-04-03T07:14:07;93877.53;;;11.94;51.37
79461;BME280;68929;42.666;23.324;2023-04-03T07:16:42;93896.72;;;12.01;52.50
79461;BME280;68929;42.666;23.324;2023-04-03T07:19:07;93913.97;;;11.87;53.58
79461;BME280;68929;42.666;23.324;2023-04-03T07:21:34;93901.13;;;11.79;53.18
79461;BME280;68929;42.666;23.324;2023-04-03T07:23:59;93894.22;;;11.78;52.53
79461;BME280;68929;42.666;23.324;2023-04-03T07:26:28;93885.59;;;11.43;53.31
79461;BME280;68929;42.666;23.324;2023-04-03T07:28:59;93883.91;;;11.09;55.08
79461;BME280;68929;42.666;23.324;2023-04-03T07:31:24;93885.19;;;11.35;55.33
79461;BME280;68929;42.666;23.324;2023-04-03T07:33:50;93898.16;;;11.64;53.49
79461;BME280;68929;42.666;23.324;2023-04-03T07:36:26;93873.09;;;11.10;54.21
79461;BME280;68929;42.666;23.324;2023-04-03T07:38:58;93900.00;;;11.75;53.83
79461;BME280;68929;42.666;23.324;2023-04-03T07:41:29;93863.88;;;11.69;53.17
79461;BME280;68929;42.666;23.324;2023-04-03T07:43:55;93873.66;;;11.69;53.99
79461;BME280;68929;42.666;23.324;2023-04-03T07:46:22;93881.69;;;12.57;51.47
79461;BME280;68929;42.666;23.324;2023-04-03T07:48:53;93856.81;;;12.25;50.95
79461;BME280;68929;42.666;23.324;2023-04-03T07:51:18;93877.91;;;12.53;51.88
79461;BME280;68929;42.666;23.324;2023-04-03T07:53:49;93885.88;;;12.91;51.56
79461;BME280;68929;42.666;23.324;2023-04-03T07:56:16;93881.13;;;12.93;51.39
79461;BME280;68929;42.666;23.324;2023-04-03T07:58:49;93880.56;;;12.53;50.92
79461;BME280;68929;42.666;23.324;2023-04-03T08:01:20;93862.59;;;12.22;51.27
79461;BME280;68929;42.666;23.324;2023-04-03T08:03:52;93858.25;;;12.49;51.60
79461;BME280;68929;42.666;23.324;2023-04-03T08:06:18;93870.50;;;12.55;51.00
79461;BME280;68929;42.666;23.324;2023-04-03T08:08:49;93846.38;;;11.68;51.99
79461;BME280;68929;42.666;23.324;2023-04-03T08:11:14;93864.72;;;12.03;53.85
79461;BME280;68929;42.666;23.324;2023-04-03T08:13:40;93870.59;;;13.20;50.90
79461;BME280;68929;42.666;23.324;2023-04-03T08:16:28;93850.38;;;13.40;50.35
79461;BME280;68929;42.666;23.324;2023-04-03T08:18:54;93849.00;;;12.73;50.75
79461;BME280;68929;42.666;23.324;2023-04-03T08:21:27;93853.44;;;13.06;48.93
79461;BME280;68929;42.666;23.324;2023-04-03T08:23:56;93866.31;;;13.40;50.08
79461;BME280;68929;42.666;23.324;2023-04-03T08:26:26;93859.75;;;13.75;49.89
79461;BME280;68929;42.666;23.324;2023-04-03T08:28:52;93864.84;;;14.13;49.40
79461;BME280;68929;42.666;23.324;2023-04-03T08:31:18;93846.38;;;14.28;49.33
79461;BME280;68929;42.666;23.324;2023-04-03T08:33:45;93856.06;;;14.44;48.03
79461;BME280;68929;42.666;23.324;2023-04-03T08:36:29;93836.03;;;14.68;47.71
79461;BME280;68929;42.666;23.324;2023-04-03T08:38:55;93858.44;;;14.87;47.02
79461;BME280;68929;42.666;23.324;2023-04-03T08:44:18;93831.91;;;14.97;47.11
79461;BME280;68929;42.666;23.324;2023-04-03T08:49:33;93838.50;;;15.57;45.62
79461;BME280;68929;42.666;23.324;2023-04-03T08:52:10;93834.50;;;15.54;45.56
79461;BME280;68929;42.666;23.324;2023-04-03T08:54:48;93848.63;;;15.65;45.05
79461;BME280;68929;42.666;23.324;2023-04-03T08:57:15;93840.16;;;15.88;45.09
79461;BME280;68929;42.666;23.324;2023-04-03T08:59:41;93835.88;;;15.82;44.55
79461;BME280;68929;42.666;23.324;2023-04-03T09:02:24;93830.53;;;15.72;46.73
79461;BME280;68929;42.666;23.324;2023-04-03T09:04:56;93811.84;;;15.47;45.39
79461;BME280;68929;42.666;23.324;2023-04-03T09:07:39;93824.97;;;15.78;45.05
79461;BME280;68929;42.666;23.324;2023-04-03T09:10:12;93810.84;;;16.03;44.12
79461;BME280;68929;42.666;23.324;2023-04-03T09:12:39;93827.88;;;16.27;43.78
79461;BME280;68929;42.666;23.324;2023-04-03T09:15:24;93809.25;;;16.12;43.76
79461;BME280;68929;42.666;23.324;2023-04-03T09:18:02;93811.34;;;16.40;43.92
79461;BME280;68929;42.666;23.324;2023-04-03T09:26:25;93804.69;;;16.58;43.95
79461;BME280;68929;42.666;23.324;2023-04-03T09:28:58;93804.13;;;16.46;43.52
79461;BME280;68929;42.666;23.324;2023-04-03T09:31:46;93776.69;;;16.35;44.20
79461;BME280;68929;42.666;23.324;2023-04-03T09:37:01;93793.22;;;16.62;43.76
79461;BME280;68929;42.666;23.324;2023-04-03T09:39:56;93799.00;;;16.79;43.19
79461;BME280;68929;42.666;23.324;2023-04-03T09:42:24;93777.66;;;16.79;42.74
79461;BME280;68929;42.666;23.324;2023-04-03T09:45:33;93791.03;;;16.74;41.92
79461;BME280;68929;42.666;23.324;2023-04-03T10:01:38;93771.38;;;16.35;42.81
79461;BME280;68929;42.666;23.324;2023-04-03T10:04:16;93771.38;;;16.35;42.69
79461;BME280;68929;42.666;23.324;2023-04-03T10:06:53;93751.34;;;16.33;42.77
79461;BME280;68929;42.666;23.324;2023-04-03T10:12:18;93772.72;;;16.23;41.82
79461;BME280;68929;42.666;23.324;2023-04-03T10:17:45;93770.84;;;15.98;44.05
79461;BME280;68929;42.666;23.324;2023-04-03T10:20:43;93775.13;;;15.94;44.30
79461;BME280;68929;42.666;23.324;2023-04-03T10:23:41;93754.34;;;16.01;42.70
79461;BME280;68929;42.666;23.324;2023-04-03T10:38:18;93745.28;;;15.62;43.50
79461;BME280;68929;42.666;23.324;2023-04-03T10:47:37;93728.75;;;15.65;44.05
79461;BME280;68929;42.666;23.324;2023-04-03T10:53:38;93735.63;;;15.36;45.86
79461;BME280;68929;42.666;23.324;2023-04-03T10:56:02;93737.16;;;15.06;45.68
79461;BME280;68929;42.666;23.324;2023-04-03T10:58:58;93736.66;;;15.09;46.67
79461;BME280;68929;42.666;23.324;2023-04-03T11:01:39;93725.47;;;15.12;45.56
79461;BME280;68929;42.666;23.324;2023-04-03T11:04:25;93715.34;;;14.89;47.75
79461;BME280;68929;42.666;23.324;2023-04-03T11:07:01;93729.97;;;15.02;47.66
79461;BME280;68929;42.666;23.324;2023-04-03T11:09:32;93725.69;;;14.96;49.23
79461;BME280;68929;42.666;23.324;2023-04-03T11:12:08;93743.72;;;14.74;48.27
79461;BME280;68929;42.666;23.324;2023-04-03T11:14:36;93754.69;;;14.87;50.14
79461;BME280;68929;42.666;23.324;2023-04-03T11:20:17;93743.56;;;13.97;52.34
79461;BME280;68929;42.666;23.324;2023-04-03T11:22:50;93741.22;;;13.69;54.22
79461;BME280;68929;42.666;23.324;2023-04-03T11:25:26;93742.91;;;13.80;55.54
79461;BME280;68929;42.666;23.324;2023-04-03T11:28:02;93741.91;;;13.22;56.97
79461;BME280;68929;42.666;23.324;2023-04-03T11:36:34;93730.88;;;13.35;59.66
79461;BME280;68929;42.666;23.324;2023-04-03T11:41:51;93735.06;;;12.78;61.00
79461;BME280;68929;42.666;23.324;2023-04-03T11:44:46;93739.38;;;12.84;61.20
79461;BME280;68929;42.666;23.324;2023-04-03T11:47:49;93740.25;;;13.43;59.38
79461;BME280;68929;42.666;23.324;2023-04-03T11:50:32;93741.00;;;13.38;60.64
79461;BME280;68929;42.666;23.324;2023-04-03T12:16:26;93755.84;;;12.43;66.61
79461;BME280;68929;42.666;23.324;2023-04-03T12:24:30;93744.75;;;12.46;67.97
79461;BME280;68929;42.666;23.324;2023-04-03T12:27:36;93742.19;;;12.13;69.02
79461;BME280;68929;42.666;23.324;2023-04-03T12:35:34;93728.03;;;11.85;69.27
79461;BME280;68929;42.666;23.324;2023-04-03T12:46:42;93712.91;;;12.41;70.15
79461;BME280;68929;42.666;23.324;2023-04-03T12:51:56;93698.84;;;12.62;67.50
79461;BME280;68929;42.666;23.324;2023-04-03T12:54:41;93688.72;;;12.37;68.64
79461;BME280;68929;42.666;23.324;2023-04-03T12:57:18;93680.94;;;12.31;68.09
79461;BME280;68929;42.666;23.324;2023-04-03T12:59:48;93698.09;;;12.23;68.86
79461;BME280;68929;42.666;23.324;2023-04-03T13:05:07;93679.13;;;12.10;69.44
79461;BME280;68929;42.666;23.324;2023-04-03T13:07:38;93684.34;;;12.04;69.00
79461;BME280;68929;42.666;23.324;2023-04-03T13:12:55;93676.47;;;11.71;70.01
79461;BME280;68929;42.666;23.324;2023-04-03T13:15:23;93700.06;;;11.23;71.35
79461;BME280;68929;42.666;23.324;2023-04-03T13:17:50;93697.50;;;11.28;72.80
79461;BME280;68929;42.666;23.324;2023-04-03T13:22:50;93672.03;;;11.22;73.33
79461;BME280;68929;42.666;23.324;2023-04-03T13:25:31;93687.91;;;11.22;72.56
79461;BME280;68929;42.666;23.324;2023-04-03T13:27:59;93680.00;;;10.94;74.73
79461;BME280;68929;42.666;23.324;2023-04-03T13:30:31;93673.19;;;10.98;73.00
79461;BME280;68929;42.666;23.324;2023-04-03T13:33:00;93690.91;;;11.14;73.94
79461;BME280;68929;42.666;23.324;2023-04-03T13:35:35;93664.16;;;11.27;73.14
79461;BME280;68929;42.666;23.324;2023-04-03T13:41:05;93662.22;;;11.06;72.44
79461;BME280;68929;42.666;23.324;2023-04-03T13:43:47;93667.19;;;11.19;73.31
79461;BME280;68929;42.666;23.324;2023-04-03T13:48:44;93680.50;;;10.91;74.78
79461;BME280;68929;42.666;23.324;2023-04-03T13:51:21;93663.75;;;11.02;73.96
79461;BME280;68929;42.666;23.324;2023-04-03T13:54:00;93679.03;;;11.00;74.81
79461;BME280;68929;42.666;23.324;2023-04-03T13:56:40;93663.13;;;11.28;72.74
79461;BME280;68929;42.666;23.324;2023-04-03T14:07:12;93658.59;;;11.28;72.47
79461;BME280;68929;42.666;23.324;2023-04-03T14:09:37;93660.28;;;11.51;71.06
79461;BME280;68929;42.666;23.324;2023-04-03T14:12:31;93663.88;;;11.62;71.68
79461;BME280;68929;42.666;23.324;2023-04-03T14:15:01;93663.97;;;11.50;71.81
79461;BME280;68929;42.666;23.324;2023-04-03T14:17:28;93671.19;;;11.55;72.30
79461;BME280;68929;42.666;23.324;2023-04-03T14:19:55;93653.34;;;11.45;73.38
79461;BME280;68929;42.666;23.324;2023-04-03T14:22:25;93663.97;;;11.50;72.88
79461;BME280;68929;42.666;23.324;2023-04-03T14:24:52;93661.53;;;11.65;72.78
79461;BME280;68929;42.666;23.324;2023-04-03T14:27:23;93643.78;;;11.44;74.06
79461;BME280;68929;42.666;23.324;2023-04-03T14:29:56;93658.28;;;11.96;70.10
79461;BME280;68929;42.666;23.324;2023-04-03T14:32:24;93652.41;;;11.56;71.93
79461;BME280;68929;42.666;23.324;2023-04-03T14:34:51;93645.56;;;11.39;72.63
79461;BME280;68929;42.666;23.324;2023-04-03T14:37:28;93660.13;;;11.08;74.12
79461;BME280;68929;42.666;23.324;2023-04-03T14:39:55;93642.84;;;11.17;73.83
79461;BME280;68929;42.666;23.324;2023-04-03T14:42:24;93657.09;;;11.49;74.04
79461;BME280;68929;42.666;23.324;2023-04-03T14:44:57;93650.50;;;11.68;72.58
79461;BME280;68929;42.666;23.324;2023-04-03T14:47:26;93645.19;;;11.68;71.99
79461;BME280;68929;42.666;23.324;2023-04-03T14:49:52;93644.88;;;11.48;72.36
79461;BME280;68929;42.666;23.324;2023-04-03T14:54:46;93634.50;;;11.25;73.82
79461;BME280;68929;42.666;23.324;2023-04-03T14:57:13;93635.59;;;11.29;73.15
79461;BME280;68929;42.666;23.324;2023-04-03T14:59:40;93613.34;;;10.92;73.18
79461;BME280;68929;42.666;23.324;2023-04-03T15:05:00;93628.75;;;12.31;68.22
79461;BME280;68929;42.666;23.324;2023-04-03T15:07:30;93627.13;;;12.03;69.58
79461;BME280;68929;42.666;23.324;2023-04-03T15:09:59;93614.75;;;12.09;69.41
79461;BME280;68929;42.666;23.324;2023-04-03T15:12:26;93625.25;;;12.26;67.87
79461;BME280;68929;42.666;23.324;2023-04-03T15:14:51;93609.63;;;11.81;69.19
79461;BME280;68929;42.666;23.324;2023-04-03T15:17:19;93631.19;;;11.89;69.55
79461;BME280;68929;42.666;23.324;2023-04-03T15:19:46;93622.88;;;12.24;67.93
79461;BME280;68929;42.666;23.324;2023-04-03T15:22:17;93592.63;;;11.98;68.62
79461;BME280;68929;42.666;23.324;2023-04-03T15:24:43;93612.28;;;12.51;67.24
79461;BME280;68929;42.666;23.324;2023-04-03T15:27:10;93616.16;;;12.43;67.86
79461;BME280;68929;42.666;23.324;2023-04-03T15:29:37;93600.91;;;12.29;67.28